createdAt,value
2023-01-07T00:01:11.764Z,41.78
2023-01-07T00:04:21.742Z,36.50
2023-01-07T00:07:24.511Z,38.70
2023-01-07T00:10:28.369Z,39.92
2023-01-07T00:13:33.086Z,36.22
2023-01-07T00:16:37.998Z,34.28
2023-01-07T00:19:40.663Z,33.40
2023-01-07T00:22:43.681Z,37.53
2023-01-07T00:25:46.610Z,41.30
2023-01-07T00:28:52.353Z,37.47
2023-01-07T00:31:55.381Z,35.53
2023-01-07T00:34:58.569Z,41.20
2023-01-07T00:38:02.340Z,38.63
2023-01-07T00:41:06.591Z,34.15
2023-01-07T00:44:10.338Z,47.92
2023-01-07T00:47:14.297Z,36.53
2023-01-07T00:50:17.713Z,43.80
2023-01-07T00:53:21.748Z,46.80
2023-01-07T00:56:24.559Z,45.30
2023-01-07T00:59:27.816Z,43.08
2023-01-07T01:02:30.754Z,41.78
2023-01-07T01:05:34.363Z,42.37
2023-01-07T01:08:37.235Z,39.67
2023-01-07T01:11:40.055Z,39.03
2023-01-07T01:14:44.934Z,34.08
2023-01-07T01:17:50.909Z,34.10
2023-01-07T01:20:55.018Z,34.30
2023-01-07T01:24:00.345Z,31.50
2023-01-07T01:27:02.883Z,27.62
2023-01-07T01:30:07.402Z,28.75
2023-01-07T01:33:15.377Z,28.75
2023-01-07T01:36:19.769Z,29.80
2023-01-07T01:39:23.429Z,31.83
2023-01-07T01:42:27.704Z,31.10
2023-01-07T01:45:32.158Z,28.10
2023-01-07T01:48:46.375Z,36.58
2023-01-07T01:52:03.731Z,33.93
2023-01-07T01:55:09.103Z,31.27
2023-01-07T01:58:17.281Z,26.27
2023-01-07T02:01:21.374Z,26.48
2023-01-07T02:04:27.446Z,28.10
2023-01-07T02:07:30.268Z,25.33
2023-01-07T02:10:35.242Z,25.23
2023-01-07T02:14:09.316Z,26.33
2023-01-07T02:17:27.287Z,26.60
2023-01-07T02:20:54.024Z,28.30
2023-01-07T02:24:33.631Z,27.10
2023-01-07T02:27:55.599Z,28.27
2023-01-07T02:31:22.027Z,30.10
2023-01-07T02:34:33.140Z,27.08
2023-01-07T02:37:36.216Z,27.80
2023-01-07T02:41:05.173Z,30.40
2023-01-07T02:44:27.533Z,29.40
2023-01-07T02:47:47.128Z,29.08
2023-01-07T02:50:50.057Z,30.12
2023-01-07T02:53:52.490Z,33.28
2023-01-07T02:57:07.488Z,29.60
2023-01-07T03:00:36.337Z,59.93
2023-01-07T03:03:52.044Z,40.67
2023-01-07T03:07:00.661Z,42.33
2023-01-07T03:10:21.640Z,37.58
2023-01-07T03:13:31.816Z,35.87
2023-01-07T03:16:42.121Z,36.65
2023-01-07T03:19:50.998Z,30.67
2023-01-07T03:22:56.731Z,30.48
2023-01-07T03:26:04.380Z,26.90
2023-01-07T03:29:14.671Z,40.57
2023-01-07T03:32:39.874Z,38.22
2023-01-07T03:35:48.072Z,32.55
2023-01-07T03:38:53.044Z,40.28
2023-01-07T03:42:16.111Z,34.05
2023-01-07T03:45:22.150Z,29.30
2023-01-07T03:48:25.733Z,27.13
2023-01-07T03:51:28.768Z,30.67
2023-01-07T03:54:32.313Z,33.42
2023-01-07T03:57:36.584Z,37.15
2023-01-07T04:00:39.709Z,39.70
2023-01-07T04:03:44.151Z,34.63
2023-01-07T04:06:47.666Z,37.17
2023-01-07T04:09:51.401Z,31.58
2023-01-07T04:12:54.143Z,41.58
2023-01-07T04:15:57.370Z,37.40
2023-01-07T04:19:04.679Z,35.90
2023-01-07T04:22:10.570Z,31.87
2023-01-07T04:25:14.640Z,38.55
2023-01-07T04:28:17.773Z,39.08
2023-01-07T04:31:20.808Z,43.43
2023-01-07T04:34:24.040Z,31.20
2023-01-07T04:37:29.053Z,32.38
2023-01-07T04:40:32.135Z,35.50
2023-01-07T04:43:36.878Z,30.37
2023-01-07T04:46:41.117Z,33.87
2023-01-07T04:49:43.798Z,31.08
2023-01-07T04:52:47.119Z,35.45
2023-01-07T04:55:50.619Z,32.20
2023-01-07T04:58:53.594Z,32.78
2023-01-07T05:01:57.813Z,36.17
2023-01-07T05:05:01.435Z,34.00
2023-01-07T05:08:06.426Z,30.95
2023-01-07T05:11:10.887Z,30.37
2023-01-07T05:14:14.634Z,30.30
2023-01-07T05:17:20.268Z,29.03
2023-01-07T05:20:23.442Z,30.60
2023-01-07T05:23:31.515Z,48.72
2023-01-07T05:26:34.800Z,37.78
2023-01-07T05:29:38.078Z,36.33
2023-01-07T05:32:40.723Z,41.58
2023-01-07T05:35:44.210Z,35.13
2023-01-07T05:38:49.208Z,33.13
2023-01-07T05:41:52.761Z,29.87
2023-01-07T05:44:56.517Z,30.13
2023-01-07T05:47:59.284Z,24.52
2023-01-07T05:51:01.778Z,30.83
2023-01-07T05:54:08.899Z,33.17
2023-01-07T05:57:13.367Z,28.40
2023-01-07T06:00:19.226Z,29.42
2023-01-07T06:03:23.508Z,27.33
2023-01-07T06:06:26.650Z,31.35
2023-01-07T06:09:30.244Z,28.92
2023-01-07T06:12:34.288Z,27.70
2023-01-07T06:15:37.489Z,29.52
2023-01-07T06:18:42.381Z,28.77
2023-01-07T06:21:46.022Z,30.27
2023-01-07T06:24:54.087Z,26.07
2023-01-07T06:27:59.237Z,27.92
2023-01-07T06:31:02.564Z,28.87
2023-01-07T06:34:06.300Z,28.95
2023-01-07T06:37:10.409Z,34.88
2023-01-07T06:40:15.865Z,34.83
2023-01-07T06:43:19.301Z,29.45
2023-01-07T06:46:22.647Z,30.75
2023-01-07T06:49:25.605Z,28.48
2023-01-07T06:52:34.258Z,29.47
2023-01-07T06:55:41.140Z,27.25
2023-01-07T06:58:46.257Z,25.67
2023-01-07T07:01:51.284Z,31.00
2023-01-07T07:04:58.323Z,29.67
2023-01-07T07:08:05.197Z,25.40
2023-01-07T07:11:09.466Z,54.40
2023-01-07T07:14:13.661Z,46.97
2023-01-07T07:17:17.863Z,31.05
2023-01-07T07:20:23.216Z,26.57
2023-01-07T07:23:29.834Z,30.70
2023-01-07T07:26:39.439Z,25.77
2023-01-07T07:29:42.839Z,26.48
2023-01-07T07:32:55.394Z,30.40
2023-01-07T07:35:59.709Z,26.73
2023-01-07T07:39:05.238Z,41.87
2023-01-07T07:42:09.652Z,37.20
2023-01-07T07:45:20.282Z,64.07
2023-01-07T07:48:23.381Z,45.35
2023-01-07T07:51:34.458Z,45.30
2023-01-07T07:54:37.867Z,39.73
2023-01-07T07:57:41.672Z,48.53
2023-01-07T08:00:48.958Z,48.67
2023-01-07T08:03:53.837Z,48.25
2023-01-07T08:06:56.809Z,52.33
2023-01-07T08:10:02.226Z,48.60
2023-01-07T08:13:11.154Z,50.33
2023-01-07T08:16:15.717Z,34.95
2023-01-07T08:19:24.982Z,36.28
2023-01-07T08:22:28.417Z,34.83
2023-01-07T08:25:33.486Z,29.90
2023-01-07T08:28:39.127Z,30.12
2023-01-07T08:31:42.478Z,25.80
2023-01-07T08:34:49.394Z,24.58
2023-01-07T08:37:53.212Z,49.47
2023-01-07T08:41:03.273Z,28.73
2023-01-07T08:44:08.871Z,28.17
2023-01-07T08:47:18.293Z,23.15
2023-01-07T08:50:21.738Z,27.13
2023-01-07T08:53:27.065Z,92.00
2023-01-07T08:56:31.262Z,25.93
2023-01-07T08:59:41.631Z,25.60
2023-01-07T09:02:45.514Z,34.22
2023-01-07T09:05:49.619Z,24.60
2023-01-07T09:09:05.233Z,24.77
2023-01-07T09:12:10.908Z,22.70
2023-01-07T09:15:18.080Z,23.23
2023-01-07T09:18:21.646Z,27.15
2023-01-07T09:21:32.552Z,23.45
2023-01-07T09:24:38.383Z,27.70
2023-01-07T09:27:47.574Z,27.97
2023-01-07T09:30:54.824Z,31.75
2023-01-07T09:34:10.686Z,27.30
2023-01-07T09:37:22.795Z,25.95
2023-01-07T09:40:31.572Z,27.67
2023-01-07T09:43:59.540Z,24.27
2023-01-07T09:47:08.233Z,24.98
2023-01-07T09:50:41.259Z,25.37
2023-01-07T09:53:53.196Z,27.33
2023-01-07T09:57:03.239Z,29.83
2023-01-07T10:00:19.797Z,28.17
2023-01-07T10:04:05.423Z,21.92
2023-01-07T10:07:20.410Z,24.60
2023-01-07T10:10:52.262Z,31.02
2023-01-07T10:14:11.320Z,23.40
2023-01-07T10:17:22.156Z,20.47
2023-01-07T10:20:58.993Z,20.08
2023-01-07T10:24:10.659Z,27.45
2023-01-07T10:27:24.230Z,26.42
2023-01-07T10:30:37.433Z,29.00
2023-01-07T10:33:41.683Z,29.20
2023-01-07T10:37:05.238Z,30.40
2023-01-07T10:40:22.974Z,31.73
2023-01-07T10:43:50.122Z,31.37
2023-01-07T10:47:00.291Z,28.90
2023-01-07T10:50:20.320Z,29.20
2023-01-07T10:53:55.433Z,32.92
2023-01-07T10:57:07.250Z,28.60
2023-01-07T11:00:17.248Z,30.95
2023-01-07T11:03:25.285Z,34.30
2023-01-07T11:06:38.497Z,33.50
2023-01-07T11:09:53.198Z,32.50
2023-01-07T11:13:06.578Z,40.38
2023-01-07T11:16:14.624Z,36.72
2023-01-07T11:19:18.068Z,34.03
2023-01-07T11:22:37.570Z,35.83
2023-01-07T11:25:50.328Z,32.33
2023-01-07T11:29:16.335Z,33.45
2023-01-07T11:32:35.141Z,33.72
2023-01-07T11:35:52.466Z,30.67
2023-01-07T11:39:12.489Z,34.83
2023-01-07T11:42:48.159Z,30.88
2023-01-07T11:46:20.005Z,24.58
2023-01-07T11:49:37.488Z,22.87
2023-01-07T11:52:55.789Z,22.33
2023-01-07T11:56:14.360Z,21.40
2023-01-07T11:59:30.093Z,21.52
2023-01-07T12:02:33.132Z,22.80
2023-01-07T12:05:40.620Z,28.08
2023-01-07T12:08:54.572Z,24.47
2023-01-07T12:12:35.065Z,20.50
2023-01-07T12:16:00.284Z,22.60
2023-01-07T12:19:24.389Z,21.70
2023-01-07T12:23:10.367Z,23.85
2023-01-07T12:26:23.450Z,21.70
2023-01-07T12:29:36.437Z,23.30
2023-01-07T12:32:50.219Z,22.52
2023-01-07T12:36:00.259Z,22.73
2023-01-07T12:39:29.245Z,18.92
2023-01-07T12:42:41.521Z,20.33
2023-01-07T12:45:53.314Z,21.83
2023-01-07T12:48:57.461Z,22.02
2023-01-07T12:52:39.232Z,21.55
2023-01-07T12:55:50.533Z,19.90
2023-01-07T12:59:45.987Z,14.43
2023-01-07T13:03:19.462Z,15.63
2023-01-07T13:06:45.008Z,14.27
2023-01-07T13:09:55.602Z,23.70
2023-01-07T13:13:08.208Z,21.17
2023-01-07T13:16:13.304Z,25.60
2023-01-07T13:19:18.203Z,17.70
2023-01-07T13:23:03.699Z,18.17
2023-01-07T13:26:21.634Z,18.35
2023-01-07T13:30:09.151Z,25.12
2023-01-07T13:33:22.196Z,29.10
2023-01-07T13:37:09.947Z,23.03
2023-01-07T13:40:28.720Z,48.78
2023-01-07T13:43:50.231Z,27.13
2023-01-07T13:47:05.092Z,24.23
2023-01-07T13:50:25.539Z,37.17
2023-01-07T13:53:35.256Z,38.60
2023-01-07T13:56:40.780Z,38.30
2023-01-07T13:59:49.619Z,24.25
2023-01-07T14:02:58.562Z,27.27
2023-01-07T14:06:19.131Z,20.00
2023-01-07T14:09:37.267Z,23.37
2023-01-07T14:13:09.438Z,24.73
2023-01-07T14:16:40.384Z,23.60
2023-01-07T14:20:08.588Z,22.15
2023-01-07T14:23:59.214Z,20.93
2023-01-07T14:27:28.403Z,23.63
2023-01-07T14:30:56.186Z,24.40
2023-01-07T14:34:25.213Z,24.25
2023-01-07T14:37:40.635Z,23.42
2023-01-07T14:40:51.091Z,28.97
2023-01-07T14:44:32.298Z,30.53
2023-01-07T14:47:41.859Z,27.98
2023-01-07T14:50:55.949Z,25.00
2023-01-07T14:54:23.910Z,27.20
2023-01-07T14:57:58.421Z,31.60
2023-01-07T15:01:46.340Z,27.07
2023-01-07T15:05:18.208Z,27.67
2023-01-07T15:08:45.257Z,27.60
2023-01-07T15:12:19.243Z,30.35
2023-01-07T15:15:47.249Z,30.73
2023-01-07T15:18:55.178Z,28.63
2023-01-07T15:22:15.254Z,29.87
2023-01-07T15:25:32.975Z,33.92
2023-01-07T15:28:47.109Z,37.17
2023-01-07T15:32:19.634Z,35.80
2023-01-07T15:35:36.241Z,30.37
2023-01-07T15:38:56.143Z,34.28
2023-01-07T15:42:12.156Z,32.90
2023-01-07T15:45:23.439Z,39.42
2023-01-07T15:48:33.777Z,39.70
2023-01-07T15:51:50.355Z,35.57
2023-01-07T15:55:01.337Z,34.78
2023-01-07T15:58:17.147Z,35.28
2023-01-07T16:01:29.588Z,37.58
2023-01-07T16:04:38.346Z,37.03
2023-01-07T16:07:48.582Z,37.83
2023-01-07T16:11:06.242Z,37.95
2023-01-07T16:14:23.440Z,40.60
2023-01-07T16:17:35.315Z,37.38
2023-01-07T16:20:51.225Z,41.40
2023-01-07T16:23:55.295Z,38.87
2023-01-07T16:27:11.220Z,39.25
2023-01-07T16:30:20.090Z,39.80
2023-01-07T16:33:29.512Z,38.25
2023-01-07T16:36:45.163Z,43.37
2023-01-07T16:39:52.533Z,36.33
2023-01-07T16:43:03.364Z,36.20
2023-01-07T16:46:41.192Z,39.83
2023-01-07T16:49:53.117Z,34.55
2023-01-07T16:53:04.221Z,36.73
2023-01-07T16:56:19.422Z,42.10
2023-01-07T16:59:32.184Z,42.00
2023-01-07T17:02:41.237Z,37.17
2023-01-07T17:06:05.385Z,42.78
2023-01-07T17:09:26.625Z,46.70
2023-01-07T17:12:43.209Z,38.97
2023-01-07T17:15:55.120Z,41.30
2023-01-07T17:19:21.153Z,34.33
2023-01-07T17:22:28.107Z,46.90
2023-01-07T17:25:40.401Z,52.43
2023-01-07T17:29:02.191Z,45.97
2023-01-07T17:32:07.034Z,46.75
2023-01-07T17:35:23.365Z,48.30
2023-01-07T17:38:28.955Z,52.03
2023-01-07T17:42:01.203Z,51.20
2023-01-07T17:45:05.304Z,54.43
2023-01-07T17:48:13.883Z,54.25
2023-01-07T17:51:20.200Z,51.25
2023-01-07T17:54:33.213Z,56.90
2023-01-07T17:57:41.336Z,57.07
2023-01-07T18:00:57.332Z,56.93
2023-01-07T18:04:02.125Z,60.25
2023-01-07T18:07:12.249Z,55.88
2023-01-07T18:10:21.961Z,60.72
2023-01-07T18:13:32.153Z,60.73
2023-01-07T18:16:50.238Z,57.73
2023-01-07T18:19:55.186Z,75.75
2023-01-07T18:23:00.406Z,74.20
2023-01-07T18:26:07.276Z,67.75
2023-01-07T18:29:23.605Z,71.70
2023-01-07T18:32:28.729Z,71.50
2023-01-07T18:35:34.175Z,66.03
2023-01-07T18:38:38.205Z,72.35
2023-01-07T18:41:44.794Z,68.90
2023-01-07T18:44:57.273Z,70.33
2023-01-07T18:48:08.102Z,65.17
2023-01-07T18:51:26.148Z,67.90
2023-01-07T18:54:40.147Z,74.62
2023-01-07T18:57:46.668Z,67.35
2023-01-07T19:01:09.166Z,75.33
2023-01-07T19:04:20.474Z,72.40
2023-01-07T19:07:32.132Z,76.87
2023-01-07T19:10:41.590Z,74.62
2023-01-07T19:13:48.312Z,69.68
2023-01-07T19:16:53.258Z,67.17
2023-01-07T19:19:56.963Z,71.23
2023-01-07T19:23:08.258Z,72.62
2023-01-07T19:26:27.254Z,66.47
2023-01-07T19:29:35.510Z,77.85
2023-01-07T19:32:43.334Z,76.73
2023-01-07T19:35:47.821Z,66.50
2023-01-07T19:39:07.443Z,66.82
2023-01-07T19:42:15.939Z,72.57
2023-01-07T19:45:24.751Z,65.18
2023-01-07T19:48:28.557Z,67.20
2023-01-07T19:51:38.206Z,70.87
2023-01-07T19:54:49.287Z,69.15
2023-01-07T19:57:56.116Z,65.20
2023-01-07T20:01:20.265Z,68.55
2023-01-07T20:04:28.174Z,70.17
2023-01-07T20:07:42.460Z,67.50
2023-01-07T20:11:03.219Z,75.68
2023-01-07T20:14:08.384Z,75.43
2023-01-07T20:17:18.690Z,57.22
2023-01-07T20:20:25.216Z,65.90
2023-01-07T20:23:30.691Z,69.73
2023-01-07T20:26:36.351Z,63.85
2023-01-07T20:29:40.748Z,71.00
2023-01-07T20:32:43.944Z,66.75
2023-01-07T20:35:51.114Z,62.03
2023-01-07T20:38:57.172Z,60.73
2023-01-07T20:42:01.157Z,65.72
2023-01-07T20:45:15.235Z,62.40
2023-01-07T20:48:23.144Z,65.07
2023-01-07T20:51:26.575Z,59.70
2023-01-07T20:54:33.411Z,63.10
2023-01-07T20:57:38.138Z,57.30
2023-01-07T21:00:50.383Z,62.83
2023-01-07T21:04:01.952Z,62.90
2023-01-07T21:07:11.507Z,60.87
2023-01-07T21:10:20.298Z,59.50
2023-01-07T21:13:35.810Z,63.05
2023-01-07T21:16:40.413Z,58.03
2023-01-07T21:19:49.425Z,63.87
2023-01-07T21:23:02.291Z,60.53
2023-01-07T21:26:10.152Z,59.60
2023-01-07T21:29:16.696Z,56.37
2023-01-07T21:32:28.250Z,60.47
2023-01-07T21:35:31.152Z,59.30
2023-01-07T21:38:35.808Z,57.90
2023-01-07T21:41:41.328Z,61.97
2023-01-07T21:44:46.100Z,61.35
2023-01-07T21:47:49.199Z,61.08
2023-01-07T21:50:56.323Z,62.13
2023-01-07T21:54:01.161Z,61.10
2023-01-07T21:57:05.241Z,59.73
2023-01-07T22:00:18.304Z,62.03
2023-01-07T22:03:21.312Z,65.22
2023-01-07T22:06:27.087Z,63.97
2023-01-07T22:09:34.164Z,64.43
2023-01-07T22:12:52.068Z,66.87
2023-01-07T22:16:07.175Z,69.47
2023-01-07T22:19:14.520Z,66.68
2023-01-07T22:22:21.010Z,57.05
2023-01-07T22:25:23.986Z,61.27
2023-01-07T22:28:27.617Z,62.03
2023-01-07T22:31:38.175Z,61.50
2023-01-07T22:34:43.192Z,62.90
2023-01-07T22:37:46.833Z,64.65
2023-01-07T22:40:51.043Z,62.30
2023-01-07T22:43:59.157Z,69.73
2023-01-07T22:47:07.390Z,63.45
2023-01-07T22:50:12.077Z,58.05
2023-01-07T22:53:15.821Z,63.28
2023-01-07T22:56:21.604Z,57.67
2023-01-07T22:59:25.500Z,57.60
2023-01-07T23:02:29.217Z,60.33
2023-01-07T23:05:36.081Z,59.22
2023-01-07T23:08:40.139Z,65.50
2023-01-07T23:11:51.226Z,61.13
2023-01-07T23:14:58.195Z,61.23
2023-01-07T23:18:02.087Z,55.90
2023-01-07T23:21:07.556Z,59.42
2023-01-07T23:24:12.301Z,57.62
2023-01-07T23:27:16.841Z,59.00
2023-01-07T23:30:20.319Z,67.37
2023-01-07T23:33:24.865Z,57.08
2023-01-07T23:36:28.647Z,60.88
2023-01-07T23:39:32.109Z,56.10
2023-01-07T23:42:36.800Z,62.33
2023-01-07T23:45:40.020Z,55.53
2023-01-07T23:48:43.019Z,56.35
2023-01-07T23:51:48.719Z,56.15
2023-01-07T23:54:51.613Z,57.83
2023-01-07T23:57:54.046Z,57.10
